Time;durP1;ratioP1;P1;durP2;ratioP2;P2;SDS_P1;SDS_P2;PMS_P1;PMS_P2;Temp;Humidity;BMP_temperature;BMP_pressure;BME280_temperature;BME280_humidity;BME280_pressure;Samples;Min_cycle;Max_cycle;Signal;HPM_P1;HPM_P2
2022/03/01 00:01:54;;;;;;;20.30;12.38;;;3.00;99.90;;;;;;5111265;28;20080;-70
2022/03/01 00:04:21;;;;;;;18.55;11.35;;;3.10;99.90;;;;;;5111713;28;20036;-70
2022/03/01 00:06:47;;;;;;;20.23;11.98;;;3.10;99.90;;;;;;5112734;28;20050;-70
2022/03/01 00:09:12;;;;;;;19.20;11.60;;;3.10;99.90;;;;;;5097133;28;20032;-70
2022/03/01 00:11:38;;;;;;;19.42;12.15;;;3.10;99.90;;;;;;5114989;28;20040;-70
2022/03/01 00:14:05;;;;;;;18.23;11.45;;;3.10;99.90;;;;;;5115183;28;20518;-70
2022/03/01 00:16:31;;;;;;;17.88;11.93;;;3.10;99.90;;;;;;5115456;28;20551;-70
2022/03/01 00:18:57;;;;;;;20.45;12.48;;;3.10;99.90;;;;;;5115965;28;20039;-70
2022/03/01 00:21:24;;;;;;;18.75;11.10;;;3.10;99.90;;;;;;5115364;28;20522;-70
2022/03/01 00:23:50;;;;;;;20.33;12.48;;;3.10;99.90;;;;;;5115025;28;20123;-70
2022/03/01 00:26:15;;;;;;;18.83;12.43;;;3.00;99.90;;;;;;5114907;28;20189;-70
2022/03/01 00:28:41;;;;;;;17.52;10.95;;;3.10;99.90;;;;;;5114985;28;20043;-70
2022/03/01 00:31:07;;;;;;;17.92;11.35;;;3.00;99.90;;;;;;5114549;28;20048;-71
2022/03/01 00:33:33;;;;;;;17.55;11.82;;;3.00;99.90;;;;;;5096828;28;20045;-70
2022/03/01 00:35:58;;;;;;;20.35;12.20;;;3.00;99.90;;;;;;5114855;28;20064;-70
2022/03/01 00:38:24;;;;;;;19.85;12.48;;;3.00;99.90;;;;;;5115184;28;20157;-70
2022/03/01 00:40:49;;;;;;;16.00;11.02;;;2.80;99.90;;;;;;5114907;28;20080;-70
2022/03/01 00:43:15;;;;;;;19.65;12.27;;;2.80;99.90;;;;;;5114774;28;20134;-71
2022/03/01 00:45:41;;;;;;;18.88;13.02;;;2.80;99.90;;;;;;5114964;28;20070;-70
2022/03/01 00:48:06;;;;;;;20.90;13.23;;;2.80;99.90;;;;;;5115242;28;20046;-70
2022/03/01 00:50:32;;;;;;;21.13;13.00;;;2.70;99.90;;;;;;5115063;28;20075;-70
2022/03/01 00:52:58;;;;;;;22.42;13.63;;;2.80;99.90;;;;;;5114671;28;20085;-70
2022/03/01 00:55:23;;;;;;;21.83;13.32;;;2.80;99.90;;;;;;5114888;28;20425;-70
2022/03/01 00:57:49;;;;;;;19.40;12.38;;;2.70;99.90;;;;;;5114683;28;20075;-70
2022/03/01 01:00:15;;;;;;;21.58;12.98;;;2.80;99.90;;;;;;5114543;28;20077;-70
2022/03/01 01:02:41;;;;;;;23.40;13.23;;;2.70;99.90;;;;;;5114507;28;20039;-70
2022/03/01 01:05:07;;;;;;;18.38;11.60;;;2.70;99.90;;;;;;5114343;28;20031;-70
2022/03/01 01:07:33;;;;;;;19.00;12.07;;;2.60;99.90;;;;;;5114250;28;20401;-70
2022/03/01 01:09:58;;;;;;;19.25;12.20;;;2.60;99.90;;;;;;5114776;28;20084;-70
2022/03/01 01:12:24;;;;;;;18.58;11.48;;;2.60;99.90;;;;;;5114283;28;20041;-70
2022/03/01 01:14:50;;;;;;;18.30;11.07;;;2.60;99.90;;;;;;5114443;28;20573;-70
2022/03/01 01:17:15;;;;;;;18.30;12.50;;;2.50;99.90;;;;;;5114315;27;20508;-70
2022/03/01 01:19:41;;;;;;;24.15;13.98;;;2.50;99.90;;;;;;5113611;28;20395;-70
2022/03/01 01:24:51;;;;;;;21.92;12.98;;;2.50;99.90;;;;;;5114283;28;20082;-70
2022/03/01 01:27:16;;;;;;;21.25;12.02;;;2.50;99.90;;;;;;5113864;28;20071;-71
2022/03/01 01:29:42;;;;;;;17.88;11.73;;;2.50;99.90;;;;;;5095837;28;20043;-70
2022/03/01 01:32:08;;;;;;;19.15;11.40;;;2.50;99.90;;;;;;5113948;28;20040;-70
2022/03/01 01:34:34;;;;;;;19.83;12.30;;;2.50;99.90;;;;;;5114297;28;20077;-70
2022/03/01 01:36:59;;;;;;;23.98;12.90;;;2.50;99.90;;;;;;5114206;28;20043;-70
2022/03/01 01:39:25;;;;;;;20.65;12.38;;;2.50;99.90;;;;;;5114004;28;20050;-70
2022/03/01 01:41:50;;;;;;;20.50;12.63;;;2.50;99.90;;;;;;5113668;28;20039;-70
2022/03/01 01:44:16;;;;;;;18.75;11.88;;;2.50;99.90;;;;;;5114004;28;20040;-70
2022/03/01 01:46:42;;;;;;;23.02;13.02;;;2.50;99.90;;;;;;5114007;28;20044;-70
2022/03/01 01:49:08;;;;;;;21.60;12.30;;;2.50;99.90;;;;;;5114167;28;20096;-70
2022/03/01 01:51:33;;;;;;;21.27;13.38;;;2.50;99.90;;;;;;5113715;28;20035;-70
2022/03/01 01:53:59;;;;;;;19.40;12.13;;;2.50;99.90;;;;;;5113677;28;20489;-71
2022/03/01 01:56:24;;;;;;;21.55;13.05;;;2.50;99.90;;;;;;5113461;28;20039;-70
2022/03/01 01:58:50;;;;;;;20.17;12.48;;;2.50;99.90;;;;;;5114092;28;20119;-70
2022/03/01 02:01:16;;;;;;;17.15;11.27;;;2.50;99.90;;;;;;5113776;28;20044;-70
2022/03/01 02:03:41;;;;;;;19.90;12.55;;;2.50;99.90;;;;;;5113792;28;20382;-70
2022/03/01 02:06:07;;;;;;;21.50;12.27;;;2.50;99.90;;;;;;5113954;28;20097;-71
2022/03/01 02:08:33;;;;;;;19.90;12.45;;;2.50;99.90;;;;;;5113686;28;20551;-71
2022/03/01 02:11:00;;;;;;;20.48;13.02;;;2.50;99.90;;;;;;5113014;28;20074;-70
2022/03/01 02:13:27;;;;;;;22.50;12.70;;;2.40;99.90;;;;;;5113592;28;20043;-70
2022/03/01 02:15:55;;;;;;;19.10;11.77;;;2.40;99.90;;;;;;5113311;28;20511;-70
2022/03/01 02:18:21;;;;;;;19.77;12.27;;;2.40;99.90;;;;;;5113499;28;20484;-70
2022/03/01 02:20:47;;;;;;;21.70;13.63;;;2.40;99.90;;;;;;5113552;28;20408;-70
2022/03/01 02:23:13;;;;;;;20.60;13.27;;;2.40;99.90;;;;;;5113018;28;20036;-70
2022/03/01 02:25:39;;;;;;;22.35;12.93;;;2.40;99.90;;;;;;5095075;28;20126;-70
2022/03/01 02:28:05;;;;;;;21.88;12.38;;;2.40;99.90;;;;;;5113355;28;20039;-70
2022/03/01 02:30:32;;;;;;;18.55;11.43;;;2.40;99.90;;;;;;5113100;28;20035;-70
2022/03/01 02:32:57;;;;;;;20.88;12.52;;;2.30;99.90;;;;;;5112904;28;20061;-70
2022/03/01 02:35:23;;;;;;;20.13;12.38;;;2.30;99.90;;;;;;5113267;28;20035;-70
2022/03/01 02:37:49;;;;;;;21.05;12.90;;;2.40;99.90;;;;;;5113131;28;20035;-70
2022/03/01 02:40:15;;;;;;;21.83;13.25;;;2.40;99.90;;;;;;5113038;28;20073;-70
2022/03/01 02:42:44;;;;;;;18.23;12.38;;;2.30;99.90;;;;;;5112975;28;20144;-70
2022/03/01 02:45:14;;;;;;;21.55;13.43;;;2.30;99.90;;;;;;5095188;28;20039;-70
2022/03/01 02:47:40;;;;;;;20.42;13.05;;;2.30;99.90;;;;;;5113193;28;20447;-70
2022/03/01 02:50:07;;;;;;;21.38;12.98;;;2.30;99.90;;;;;;5113066;28;20092;-70
2022/03/01 02:52:33;;;;;;;18.10;12.32;;;2.30;99.90;;;;;;5093792;28;20047;-71
2022/03/01 02:54:59;;;;;;;24.35;13.98;;;2.30;99.90;;;;;;5112475;28;20044;-71
2022/03/01 02:57:25;;;;;;;21.63;13.00;;;2.30;99.90;;;;;;5093971;28;20043;-71
2022/03/01 02:59:52;;;;;;;23.35;12.90;;;2.20;99.90;;;;;;5112397;28;20036;-71
2022/03/01 03:02:18;;;;;;;20.33;12.32;;;2.30;99.90;;;;;;5093871;28;20036;-71
2022/03/01 03:04:44;;;;;;;18.45;12.18;;;2.30;99.90;;;;;;5112312;28;20096;-70
2022/03/01 03:07:11;;;;;;;22.88;13.43;;;2.20;99.90;;;;;;5112784;28;20044;-70
2022/03/01 03:09:37;;;;;;;23.13;13.13;;;2.10;99.90;;;;;;5113006;28;20055;-70
2022/03/01 03:12:06;;;;;;;21.05;12.85;;;2.20;99.90;;;;;;5112871;28;20074;-70
2022/03/01 03:14:32;;;;;;;21.85;12.95;;;2.20;99.90;;;;;;5112131;28;20035;-71
2022/03/01 03:16:58;;;;;;;22.05;13.77;;;2.20;99.90;;;;;;5112101;28;20058;-70
2022/03/01 03:19:24;;;;;;;21.98;12.52;;;2.10;99.90;;;;;;5093911;28;20493;-71
2022/03/01 03:21:50;;;;;;;20.88;11.90;;;2.20;99.90;;;;;;5111588;28;20489;-70
2022/03/01 03:24:17;;;;;;;20.20;12.60;;;2.20;99.90;;;;;;5112822;28;20039;-70
2022/03/01 03:26:42;;;;;;;23.17;13.93;;;2.20;99.90;;;;;;5113041;28;20082;-70
2022/03/01 03:29:08;;;;;;;23.00;13.63;;;2.20;99.90;;;;;;5112930;28;20035;-70
2022/03/01 03:31:39;;;;;;;22.52;13.23;;;2.10;99.90;;;;;;5111710;28;20040;-71
2022/03/01 03:34:08;;;;;;;20.90;13.68;;;2.20;99.90;;;;;;5093895;28;20062;-70
2022/03/01 03:36:37;;;;;;;23.85;13.25;;;2.20;99.90;;;;;;5111723;28;20079;-70
2022/03/01 03:39:04;;;;;;;22.95;13.73;;;2.20;99.90;;;;;;5112122;28;20078;-71
2022/03/01 03:41:30;;;;;;;19.60;12.63;;;2.20;99.90;;;;;;5112352;28;20039;-71
2022/03/01 03:43:55;;;;;;;21.33;14.43;;;2.20;99.90;;;;;;5082269;22;20102;-75
2022/03/01 03:46:21;;;;;;;22.15;12.98;;;2.10;99.90;;;;;;5054795;28;20037;-75
2022/03/01 03:48:47;;;;;;;24.88;13.75;;;2.10;99.90;;;;;;5035853;28;20072;-76
2022/03/01 03:51:13;;;;;;;21.88;13.82;;;2.10;99.90;;;;;;5054192;28;20045;-75
2022/03/01 03:53:39;;;;;;;24.40;14.52;;;2.10;99.90;;;;;;5036913;28;20040;-76
2022/03/01 03:56:04;;;;;;;24.45;14.90;;;2.10;99.90;;;;;;5054811;28;20082;-76
2022/03/01 03:58:30;;;;;;;23.83;14.23;;;2.20;99.90;;;;;;5054390;28;20163;-75
2022/03/01 04:00:56;;;;;;;22.58;13.93;;;2.20;99.90;;;;;;5020252;28;20411;-75
2022/03/01 04:03:23;;;;;;;20.88;13.18;;;2.10;99.90;;;;;;5020595;28;20479;-75
2022/03/01 04:05:50;;;;;;;24.38;13.77;;;2.20;99.90;;;;;;5036838;28;20402;-76
2022/03/01 04:08:16;;;;;;;19.92;12.77;;;2.20;99.90;;;;;;5037027;28;20041;-75
2022/03/01 04:10:43;;;;;;;21.05;14.10;;;2.10;99.90;;;;;;5036611;28;20045;-75
2022/03/01 04:13:09;;;;;;;24.45;15.40;;;2.10;99.90;;;;;;5036427;28;20083;-76
2022/03/01 04:15:35;;;;;;;22.10;14.63;;;2.10;99.90;;;;;;5036594;28;20041;-75
2022/03/01 04:18:02;;;;;;;20.58;13.48;;;2.10;99.90;;;;;;5036355;28;20037;-75
2022/03/01 04:20:27;;;;;;;22.17;13.50;;;2.10;99.90;;;;;;5054271;28;20090;-76
2022/03/01 04:22:53;;;;;;;21.38;13.80;;;2.20;99.90;;;;;;5036360;28;20032;-76
2022/03/01 04:25:19;;;;;;;24.00;14.57;;;2.20;99.90;;;;;;5054153;28;20036;-76
2022/03/01 04:27:45;;;;;;;22.70;14.00;;;2.10;99.90;;;;;;5036224;28;20124;-75
2022/03/01 04:30:12;;;;;;;24.90;13.73;;;2.20;99.90;;;;;;5036298;28;20048;-75
2022/03/01 04:32:40;;;;;;;19.50;13.90;;;2.20;99.90;;;;;;5053717;28;20511;-75
2022/03/01 04:35:08;;;;;;;24.55;14.00;;;2.20;99.90;;;;;;5036343;28;20052;-75
2022/03/01 04:37:38;;;;;;;21.38;14.23;;;2.20;99.90;;;;;;5053937;28;20045;-75
2022/03/01 04:40:06;;;;;;;24.83;14.77;;;2.20;99.90;;;;;;5053942;28;20116;-76
2022/03/01 04:42:32;;;;;;;24.77;14.45;;;2.20;99.90;;;;;;5035568;28;20048;-76
2022/03/01 04:44:58;;;;;;;22.45;13.45;;;2.20;99.90;;;;;;5036011;28;20041;-76
2022/03/01 04:47:23;;;;;;;21.88;15.00;;;2.20;99.90;;;;;;5053831;28;20052;-76
2022/03/01 04:49:49;;;;;;;24.73;14.60;;;2.10;99.90;;;;;;5035859;28;20384;-75
2022/03/01 04:52:15;;;;;;;24.63;14.73;;;2.20;99.90;;;;;;5035394;28;20044;-75
2022/03/01 04:54:40;;;;;;;25.75;14.50;;;2.20;99.90;;;;;;5053582;28;20460;-75
2022/03/01 04:57:06;;;;;;;20.70;13.65;;;2.20;99.90;;;;;;5035824;28;20037;-75
2022/03/01 04:59:32;;;;;;;23.33;14.55;;;2.20;99.90;;;;;;5035714;28;20490;-76
2022/03/01 05:01:57;;;;;;;23.48;14.93;;;2.20;99.90;;;;;;5053400;28;20083;-75
2022/03/01 05:04:23;;;;;;;26.08;15.20;;;2.20;99.90;;;;;;5053398;28;20072;-75
2022/03/01 05:06:49;;;;;;;25.00;15.18;;;2.20;99.90;;;;;;5053708;28;20037;-75
2022/03/01 05:09:15;;;;;;;24.08;15.18;;;2.10;99.90;;;;;;5053400;28;20048;-75
2022/03/01 05:11:41;;;;;;;24.27;15.15;;;2.10;99.90;;;;;;5053392;28;20051;-75
2022/03/01 05:14:06;;;;;;;23.75;14.35;;;2.10;99.90;;;;;;5018913;28;20115;-75
2022/03/01 05:16:32;;;;;;;25.05;16.17;;;2.20;99.90;;;;;;5035611;28;20049;-76
2022/03/01 05:18:58;;;;;;;24.83;15.02;;;2.20;99.90;;;;;;5035460;28;20041;-75
2022/03/01 05:21:23;;;;;;;20.92;13.05;;;2.20;99.90;;;;;;5053090;28;20414;-75
2022/03/01 05:23:49;;;;;;;25.38;15.20;;;2.30;99.90;;;;;;5035181;28;20037;-75
2022/03/01 05:26:14;;;;;;;24.55;14.80;;;2.30;99.90;;;;;;5035234;28;20052;-76
2022/03/01 05:28:40;;;;;;;23.70;14.82;;;2.30;99.90;;;;;;5053112;28;20037;-76
2022/03/01 05:31:05;;;;;;;23.00;14.60;;;2.30;99.90;;;;;;5035216;28;20040;-76
2022/03/01 05:33:31;;;;;;;21.30;12.43;;;2.30;99.90;;;;;;5034994;28;20041;-75
2022/03/01 05:35:57;;;;;;;22.67;13.75;;;2.30;99.90;;;;;;5034988;28;20036;-76
2022/03/01 05:38:23;;;;;;;24.33;14.63;;;2.20;99.90;;;;;;5035270;28;20251;-77
2022/03/01 05:40:49;;;;;;;28.25;16.00;;;2.20;99.90;;;;;;5018205;28;20052;-78
2022/03/01 05:43:14;;;;;;;22.27;14.15;;;2.20;99.90;;;;;;5018164;28;20033;-77
2022/03/01 05:45:41;;;;;;;24.58;14.43;;;2.20;99.90;;;;;;5034954;28;20052;-76
2022/03/01 05:48:07;;;;;;;24.45;15.32;;;2.20;99.90;;;;;;5035126;28;20067;-77
2022/03/01 05:50:33;;;;;;;28.05;15.73;;;2.20;99.90;;;;;;5035013;28;20029;-77
2022/03/01 05:52:58;;;;;;;23.17;14.07;;;2.30;99.90;;;;;;5034355;28;20067;-76
2022/03/01 05:55:24;;;;;;;19.85;13.85;;;2.30;99.90;;;;;;5034721;28;20071;-76
2022/03/01 05:57:50;;;;;;;24.17;14.50;;;2.30;99.90;;;;;;5034621;28;20413;-77
2022/03/01 06:00:17;;;;;;;21.50;15.00;;;2.30;99.90;;;;;;5034794;28;20064;-77
2022/03/01 06:02:45;;;;;;;24.80;15.77;;;2.30;99.90;;;;;;5034154;28;20131;-78
2022/03/01 06:05:11;;;;;;;25.73;15.30;;;2.30;99.90;;;;;;5033967;28;20112;-76
2022/03/01 06:07:37;;;;;;;26.08;15.40;;;2.20;99.90;;;;;;5034630;28;20079;-78
2022/03/01 06:10:04;;;;;;;23.92;15.30;;;2.20;99.90;;;;;;5034436;28;20033;-77
2022/03/01 06:12:30;;;;;;;25.65;15.68;;;2.20;99.90;;;;;;5017517;28;20049;-76
2022/03/01 06:14:55;;;;;;;21.80;14.40;;;2.20;99.90;;;;;;5034329;28;20498;-77
2022/03/01 06:17:21;;;;;;;27.38;15.80;;;2.20;99.90;;;;;;5034330;28;20048;-77
2022/03/01 06:19:46;;;;;;;20.60;14.10;;;2.30;99.90;;;;;;5034458;28;20037;-76
2022/03/01 06:22:14;;;;;;;23.13;13.93;;;2.30;99.90;;;;;;5034203;28;20043;-77
2022/03/01 06:24:41;;;;;;;22.52;13.43;;;2.30;99.90;;;;;;5034118;28;20041;-77
2022/03/01 06:27:07;;;;;;;24.42;13.98;;;2.30;99.90;;;;;;5034160;28;20040;-77
2022/03/01 06:29:34;;;;;;;23.95;14.02;;;2.40;99.90;;;;;;5034351;28;20067;-77
2022/03/01 06:32:00;;;;;;;23.92;13.80;;;2.30;99.90;;;;;;5033984;28;20049;-76
2022/03/01 06:34:25;;;;;;;25.95;15.60;;;2.30;99.90;;;;;;5051951;28;20561;-76
2022/03/01 06:36:51;;;;;;;24.10;15.45;;;2.30;99.90;;;;;;5051747;28;20080;-76
2022/03/01 06:39:17;;;;;;;24.83;15.43;;;2.30;99.90;;;;;;5033971;28;20422;-76
2022/03/01 06:41:43;;;;;;;20.92;12.95;;;2.30;99.90;;;;;;5051823;28;20048;-77
2022/03/01 06:44:09;;;;;;;28.77;15.65;;;2.40;99.90;;;;;;5033936;28;20114;-77
2022/03/01 06:46:35;;;;;;;22.48;13.38;;;2.40;99.90;;;;;;5034188;28;20502;-77
2022/03/01 06:49:01;;;;;;;26.23;14.57;;;2.40;99.90;;;;;;5017656;28;20398;-77
2022/03/01 06:51:28;;;;;;;25.13;14.40;;;2.40;99.90;;;;;;5033437;28;20064;-77
2022/03/01 06:53:54;;;;;;;23.15;14.07;;;2.40;99.90;;;;;;5017393;28;20041;-76
2022/03/01 06:56:20;;;;;;;27.48;15.93;;;2.40;99.90;;;;;;5033845;28;20045;-76
2022/03/01 06:58:46;;;;;;;23.55;14.32;;;2.40;99.90;;;;;;5033804;28;20045;-76
2022/03/01 07:01:12;;;;;;;24.98;15.23;;;2.40;99.90;;;;;;5033399;28;20078;-77
2022/03/01 07:03:39;;;;;;;24.80;14.95;;;2.40;99.90;;;;;;5051539;28;20111;-77
2022/03/01 07:06:04;;;;;;;24.55;14.95;;;2.40;99.90;;;;;;5051494;28;20116;-77
2022/03/01 07:08:30;;;;;;;23.52;15.38;;;2.40;99.90;;;;;;5051739;28;20122;-76
2022/03/01 07:10:56;;;;;;;27.27;16.98;;;2.40;99.90;;;;;;5017076;28;20041;-77
2022/03/01 07:13:21;;;;;;;30.45;16.27;;;2.40;99.90;;;;;;5051395;28;20116;-77
2022/03/01 07:15:47;;;;;;;25.05;15.70;;;2.50;99.90;;;;;;5052634;28;20064;-77
2022/03/01 07:18:12;;;;;;;28.88;16.15;;;2.50;99.90;;;;;;5055438;28;20041;-76
2022/03/01 07:20:38;;;;;;;23.35;15.13;;;2.60;99.90;;;;;;5037462;28;20041;-76
2022/03/01 07:23:05;;;;;;;28.88;16.67;;;2.60;99.90;;;;;;5037200;28;20033;-76
2022/03/01 07:25:30;;;;;;;26.33;16.55;;;2.60;99.90;;;;;;5037707;28;20041;-76
2022/03/01 07:27:56;;;;;;;27.42;15.40;;;2.60;99.90;;;;;;5055481;28;20052;-76
2022/03/01 07:30:27;;;;;;;26.13;16.40;;;2.70;99.90;;;;;;5037659;28;20091;-76
2022/03/01 07:32:55;;;;;;;26.20;15.40;;;2.70;99.90;;;;;;5054875;28;20029;-77
2022/03/01 07:35:21;;;;;;;27.33;15.75;;;2.80;99.90;;;;;;5055219;28;20453;-77
2022/03/01 07:37:48;;;;;;;23.92;15.38;;;2.90;99.90;;;;;;5055279;28;20048;-76
2022/03/01 07:40:14;;;;;;;28.20;16.50;;;2.90;99.90;;;;;;5037186;28;20037;-78
2022/03/01 07:42:41;;;;;;;28.80;16.55;;;3.00;99.90;;;;;;5037096;28;20459;-77
2022/03/01 07:45:08;;;;;;;24.83;15.70;;;3.00;99.90;;;;;;5037357;28;20041;-77
2022/03/01 07:47:34;;;;;;;26.85;15.80;;;3.10;99.90;;;;;;5055153;28;20048;-77
2022/03/01 07:49:59;;;;;;;23.98;15.68;;;3.10;99.90;;;;;;5037125;28;20045;-76
2022/03/01 07:52:25;;;;;;;24.08;15.65;;;3.30;99.90;;;;;;5036635;28;20513;-76
2022/03/01 07:54:51;;;;;;;24.33;16.48;;;3.20;99.90;;;;;;5036905;28;20198;-76
2022/03/01 07:57:17;;;;;;;24.42;16.15;;;3.30;99.90;;;;;;5036912;28;20044;-76
2022/03/01 07:59:43;;;;;;;28.80;17.08;;;3.30;99.90;;;;;;5054832;28;20047;-76
2022/03/01 08:02:09;;;;;;;24.33;16.27;;;3.30;99.90;;;;;;5054355;28;20078;-77
2022/03/01 08:04:37;;;;;;;24.58;15.73;;;3.30;99.90;;;;;;5036919;28;20051;-77
2022/03/01 08:07:03;;;;;;;24.45;16.45;;;3.40;99.90;;;;;;5037085;28;20499;-77
2022/03/01 08:09:29;;;;;;;31.33;16.27;;;3.30;99.90;;;;;;5054661;28;20041;-77
2022/03/01 08:11:54;;;;;;;25.65;15.27;;;3.40;99.90;;;;;;5036420;28;20033;-77
2022/03/01 08:14:20;;;;;;;27.25;15.48;;;3.40;99.90;;;;;;5036563;28;20411;-77
2022/03/01 08:16:45;;;;;;;27.23;15.88;;;3.50;99.90;;;;;;5054223;28;20040;-75
2022/03/01 08:19:11;;;;;;;27.92;16.75;;;3.60;99.90;;;;;;5054226;28;20048;-75
2022/03/01 08:21:36;;;;;;;25.50;16.35;;;3.60;99.90;;;;;;5053856;28;20036;-77
2022/03/01 08:24:02;;;;;;;28.08;15.88;;;3.60;99.90;;;;;;5053754;28;20045;-75
2022/03/01 08:26:28;;;;;;;24.63;15.00;;;3.60;99.90;;;;;;5053923;28;20442;-75
2022/03/01 08:28:53;;;;;;;27.77;16.92;;;3.60;99.90;;;;;;5053249;28;20037;-76
2022/03/01 08:31:19;;;;;;;27.23;16.95;;;3.60;99.90;;;;;;5035449;28;20032;-77
2022/03/01 08:33:46;;;;;;;27.88;15.85;;;3.60;99.90;;;;;;5053745;28;20112;-76
2022/03/01 08:36:13;;;;;;;28.42;16.90;;;3.60;99.90;;;;;;5054097;28;20037;-75
2022/03/01 08:38:39;;;;;;;25.77;16.23;;;3.70;99.90;;;;;;5036382;28;20052;-75
2022/03/01 08:41:05;;;;;;;28.05;16.52;;;3.60;99.90;;;;;;5053545;28;20037;-77
2022/03/01 08:43:31;;;;;;;26.67;15.77;;;3.70;99.90;;;;;;5053724;28;20490;-76
2022/03/01 08:45:56;;;;;;;23.70;15.13;;;3.70;99.90;;;;;;5053810;28;20120;-75
2022/03/01 08:48:22;;;;;;;27.92;17.20;;;3.70;99.90;;;;;;5053850;28;20048;-76
2022/03/01 08:50:48;;;;;;;26.60;15.65;;;3.90;99.90;;;;;;5036050;28;20409;-75
2022/03/01 08:53:14;;;;;;;23.98;15.55;;;3.80;99.90;;;;;;5035780;28;20103;-76
2022/03/01 08:55:40;;;;;;;25.42;15.93;;;3.80;99.90;;;;;;5053740;28;20124;-75
2022/03/01 08:58:06;;;;;;;23.83;15.30;;;3.90;99.90;;;;;;5035734;28;20041;-75
2022/03/01 09:00:33;;;;;;;26.88;16.40;;;3.90;99.90;;;;;;5053567;28;20044;-75
2022/03/01 09:02:58;;;;;;;25.70;15.50;;;4.00;99.90;;;;;;5035674;28;20041;-75
2022/03/01 09:05:25;;;;;;;25.48;16.80;;;4.10;99.90;;;;;;5053586;28;20037;-76
2022/03/01 09:07:51;;;;;;;26.92;15.93;;;4.10;99.90;;;;;;5053523;28;20083;-75
2022/03/01 09:10:21;;;;;;;25.48;15.60;;;4.20;99.90;;;;;;5035507;28;20076;-75
2022/03/01 09:12:57;;;;;;;27.20;16.52;;;4.40;99.90;;;;;;5035245;28;20047;-75
2022/03/01 09:15:25;;;;;;;26.73;16.63;;;4.50;99.90;;;;;;5035814;28;20037;-76
2022/03/01 09:17:51;;;;;;;25.58;16.13;;;4.60;99.90;;;;;;5035333;28;20064;-75
2022/03/01 09:20:17;;;;;;;25.40;15.63;;;4.70;99.90;;;;;;5053295;28;20045;-76
2022/03/01 09:22:43;;;;;;;25.42;17.23;;;4.80;99.90;;;;;;5035270;28;20072;-76
2022/03/01 09:25:09;;;;;;;25.40;16.98;;;4.90;99.90;;;;;;5035475;28;20116;-76
2022/03/01 09:27:35;;;;;;;28.90;16.92;;;5.00;99.90;;;;;;5035071;28;20486;-76
2022/03/01 09:30:01;;;;;;;24.90;16.27;;;5.20;99.90;;;;;;5035140;28;20041;-74
2022/03/01 09:32:27;;;;;;;26.38;16.40;;;5.40;99.90;;;;;;5034714;28;20044;-75
2022/03/01 09:34:54;;;;;;;26.45;17.10;;;5.50;99.90;;;;;;5052959;28;20029;-76
2022/03/01 09:37:20;;;;;;;24.65;16.10;;;5.70;99.90;;;;;;5034355;28;20037;-75
2022/03/01 09:39:46;;;;;;;23.90;15.95;;;5.80;99.90;;;;;;5033084;28;20056;-76
2022/03/01 09:42:11;;;;;;;25.40;15.10;;;6.00;99.90;;;;;;5017151;28;20064;-75
2022/03/01 09:44:38;;;;;;;25.15;15.13;;;6.00;99.90;;;;;;5046568;22;20406;-71
2022/03/01 09:47:04;;;;;;;23.75;15.98;;;6.00;99.90;;;;;;5038287;28;20041;-70
2022/03/01 09:49:29;;;;;;;26.67;14.88;;;6.00;99.90;;;;;;5038002;28;20497;-71
2022/03/01 09:51:55;;;;;;;25.25;15.38;;;6.10;99.90;;;;;;5042884;28;20042;-71
2022/03/01 09:54:24;;;;;;;22.77;15.73;;;6.10;99.90;;;;;;5028110;28;20038;-71
2022/03/01 09:56:50;;;;;;;23.90;15.90;;;6.20;99.90;;;;;;5012626;28;20403;-71
2022/03/01 09:59:15;;;;;;;25.40;15.23;;;6.30;99.90;;;;;;5012926;28;20038;-71
2022/03/01 10:01:52;;;;;;;19.85;14.75;;;6.40;99.90;;;;;;5012451;28;20034;-70
2022/03/01 10:04:18;;;;;;;24.30;15.75;;;6.50;99.90;;;;;;5013069;28;20040;-72
2022/03/01 10:06:47;;;;;;;21.52;13.73;;;6.50;99.90;;;;;;5019871;28;20482;-71
2022/03/01 10:09:15;;;;;;;20.35;13.18;;;6.50;99.90;;;;;;5029659;28;20487;-71
2022/03/01 10:11:42;;;;;;;20.33;12.63;;;6.50;99.90;;;;;;5025410;28;20041;-71
2022/03/01 10:14:08;;;;;;;21.05;14.63;;;6.50;99.90;;;;;;5032249;28;20045;-71
2022/03/01 10:16:39;;;;;;;22.80;14.02;;;6.50;99.90;;;;;;5032480;28;20071;-71
2022/03/01 10:19:16;;;;;;;27.75;15.25;;;6.70;99.90;;;;;;5031126;28;20126;-71
2022/03/01 10:21:42;;;;;;;23.48;13.98;;;6.60;99.90;;;;;;5014264;28;20491;-71
2022/03/01 10:24:08;;;;;;;21.25;14.88;;;6.70;99.90;;;;;;5032211;28;20123;-71
2022/03/01 10:26:37;;;;;;;22.00;13.70;;;6.70;99.90;;;;;;5032130;28;20045;-72
2022/03/01 10:29:05;;;;;;;20.02;13.25;;;6.80;99.90;;;;;;5030883;28;20037;-72
2022/03/01 10:31:34;;;;;;;19.33;12.88;;;6.90;99.80;;;;;;5032059;28;20041;-71
2022/03/01 10:34:07;;;;;;;18.42;12.88;;;6.90;99.60;;;;;;5030666;28;20439;-72
2022/03/01 10:36:35;;;;;;;21.50;13.65;;;7.00;98.50;;;;;;5031952;28;20072;-71
2022/03/01 10:39:08;;;;;;;20.73;13.40;;;7.00;98.10;;;;;;5030596;28;20041;-71
2022/03/01 10:41:40;;;;;;;21.45;12.88;;;7.10;97.50;;;;;;5031929;28;20040;-70
2022/03/01 10:44:11;;;;;;;18.48;12.57;;;7.10;97.20;;;;;;5031455;28;20046;-72
2022/03/01 10:46:39;;;;;;;21.10;13.18;;;7.20;96.60;;;;;;5031816;28;20560;-72
2022/03/01 10:49:09;;;;;;;18.58;12.68;;;7.30;96.20;;;;;;5030681;28;20465;-72
2022/03/01 10:51:47;;;;;;;18.15;12.55;;;7.40;95.90;;;;;;5030204;28;20039;-71
2022/03/01 10:54:30;;;;;;;20.98;13.85;;;7.50;95.50;;;;;;5031887;28;20048;-72
2022/03/01 10:56:57;;;;;;;15.85;12.60;;;7.60;94.90;;;;;;5024178;28;20045;-71
2022/03/01 10:59:27;;;;;;;17.85;12.65;;;7.70;94.60;;;;;;5022005;28;20399;-71
2022/03/01 11:01:54;;;;;;;21.85;14.43;;;7.80;93.40;;;;;;5018150;28;20446;-71
2022/03/01 11:04:24;;;;;;;20.00;12.75;;;7.80;94.30;;;;;;5021040;28;20037;-70
2022/03/01 11:06:50;;;;;;;21.42;13.77;;;7.90;93.50;;;;;;5022829;28;20064;-71
2022/03/01 11:09:17;;;;;;;19.50;13.10;;;8.00;92.90;;;;;;5023634;28;20470;-71
2022/03/01 11:11:44;;;;;;;21.17;13.77;;;8.10;92.40;;;;;;5022503;28;20073;-70
2022/03/01 11:14:11;;;;;;;17.80;12.20;;;8.30;91.50;;;;;;5028414;28;20045;-72
2022/03/01 11:16:48;;;;;;;18.75;13.32;;;8.40;91.40;;;;;;5031399;28;20077;-71
2022/03/01 11:19:40;;;;;;;19.52;12.82;;;8.50;90.60;;;;;;5012216;28;20070;-73
2022/03/01 11:22:15;;;;;;;20.73;11.75;;;8.60;85.60;;;;;;5006665;28;20096;-71
2022/03/01 11:24:41;;;;;;;20.33;13.55;;;8.60;88.80;;;;;;5011649;28;20034;-71
2022/03/01 11:27:08;;;;;;;18.75;12.90;;;8.50;88.20;;;;;;5011644;28;20044;-73
2022/03/01 11:29:38;;;;;;;21.42;13.32;;;8.50;90.40;;;;;;5010637;28;20046;-72
2022/03/01 11:32:17;;;;;;;19.85;13.13;;;8.50;85.20;;;;;;5011810;28;20456;-74
2022/03/01 11:34:44;;;;;;;21.98;13.75;;;8.50;85.50;;;;;;5011968;28;20078;-72
2022/03/01 11:37:22;;;;;;;20.88;13.32;;;8.60;87.70;;;;;;5010871;28;20042;-72
2022/03/01 11:39:56;;;;;;;17.98;12.48;;;8.60;87.70;;;;;;5011359;28;20045;-73
2022/03/01 11:42:22;;;;;;;21.35;13.93;;;8.60;85.90;;;;;;5010181;28;20034;-72
2022/03/01 11:44:54;;;;;;;20.38;13.15;;;8.70;86.80;;;;;;5011253;28;20042;-74
2022/03/01 11:47:38;;;;;;;18.55;13.23;;;8.60;83.10;;;;;;5013239;28;20041;-74
2022/03/01 11:50:16;;;;;;;21.42;14.23;;;8.70;83.10;;;;;;5013299;28;20500;-73
2022/03/01 11:52:56;;;;;;;19.70;13.30;;;8.60;84.80;;;;;;5012048;28;20034;-73
2022/03/01 11:55:23;;;;;;;20.88;14.25;;;8.70;84.60;;;;;;5011708;28;20050;-74
2022/03/01 11:57:51;;;;;;;23.45;14.70;;;8.60;85.90;;;;;;5012400;28;20046;-72
2022/03/01 12:00:18;;;;;;;21.40;14.75;;;8.60;87.30;;;;;;5012988;28;20706;-74
2022/03/01 12:02:48;;;;;;;22.08;14.90;;;8.60;87.00;;;;;;5013741;28;20164;-73
2022/03/01 12:05:25;;;;;;;20.92;13.65;;;8.60;86.80;;;;;;5016038;28;20097;-72
2022/03/01 12:07:52;;;;;;;20.08;14.20;;;8.50;86.80;;;;;;5015519;28;20073;-72
2022/03/01 12:10:24;;;;;;;22.77;14.32;;;8.60;86.20;;;;;;5013871;28;20033;-73
2022/03/01 12:12:53;;;;;;;23.13;15.32;;;8.50;85.20;;;;;;5016167;28;20046;-73
2022/03/01 12:15:33;;;;;;;20.83;12.82;;;8.60;84.20;;;;;;5015753;28;20042;-73
2022/03/01 12:18:12;;;;;;;21.98;13.77;;;8.60;83.50;;;;;;5014868;28;20041;-74
2022/03/01 12:20:40;;;;;;;20.90;13.60;;;8.60;82.70;;;;;;5014723;28;20116;-72
2022/03/01 12:23:06;;;;;;;21.58;14.50;;;8.60;82.60;;;;;;5014411;28;20112;-73
2022/03/01 12:25:39;;;;;;;22.63;13.98;;;8.60;83.10;;;;;;5013487;28;20131;-72
2022/03/01 12:28:11;;;;;;;21.55;14.57;;;8.60;82.00;;;;;;5014751;28;20045;-72
2022/03/01 12:30:43;;;;;;;21.90;15.05;;;8.60;81.00;;;;;;5013267;28;20068;-72
2022/03/01 12:33:14;;;;;;;20.08;14.07;;;8.60;81.80;;;;;;5014191;28;20038;-71
2022/03/01 12:35:41;;;;;;;21.33;13.73;;;8.60;82.10;;;;;;5014346;28;20042;-72
2022/03/01 12:38:12;;;;;;;20.60;13.93;;;8.60;83.00;;;;;;5016642;28;20042;-72